Time;durP1;ratioP1;P1;durP2;ratioP2;P2;SDS_P1;SDS_P2;PMS_P1;PMS_P2;Temp;Humidity;BMP_temperature;BMP_pressure;BME280_temperature;BME280_humidity;BME280_pressure;Samples;Min_cycle;Max_cycle;Signal;HPM_P1;HPM_P2
2021/12/10 00:01:10;;;;;;;19.98;10.32;;;;;;;;;;5022828;28;20069;-75
2021/12/10 00:03:47;;;;;;;19.77;10.80;;;;;;;;;;5023004;28;20045;-75
2021/12/10 00:06:22;;;;;;;15.88;10.30;;;;;;;;;;5023070;28;20034;-75
2021/12/10 00:08:52;;;;;;;17.38;9.20;;;;;;;;;;5005294;28;20025;-75
2021/12/10 00:11:24;;;;;;;16.90;10.02;;;;;;;;;;5023078;28;20069;-76
2021/12/10 00:13:49;;;;;;;17.67;9.20;;;;;;;;;;5005078;28;20034;-74
2021/12/10 00:16:16;;;;;;;13.70;8.70;;;;;;;;;;5025148;28;20039;-76
2021/12/10 00:18:49;;;;;;;17.38;9.20;;;;;;;;;;5026946;28;20030;-75
2021/12/10 00:21:16;;;;;;;15.10;8.48;;;;;;;;;;5027171;28;20450;-77
2021/12/10 00:23:49;;;;;;;18.90;8.77;;;;;;;;;;5026598;28;20034;-76
2021/12/10 00:26:15;;;;;;;14.57;8.88;;;;;;;;;;5009329;28;20064;-76
2021/12/10 00:28:41;;;;;;;13.50;8.15;;;;;;;;;;5026758;28;20385;-75
2021/12/10 00:34:03;;;;;;;15.80;8.73;;;;;;;;;;5026787;28;20034;-78
2021/12/10 00:36:30;;;;;;;13.43;8.18;;;;;;;;;;5008779;28;20030;-75
2021/12/10 00:38:55;;;;;;;17.05;7.85;;;;;;;;;;5009038;28;20061;-74
2021/12/10 00:41:23;;;;;;;14.30;8.38;;;;;;;;;;5026403;28;20041;-77
2021/12/10 00:43:49;;;;;;;13.57;7.68;;;;;;;;;;5008071;28;20452;-76
2021/12/10 00:46:15;;;;;;;13.88;7.53;;;;;;;;;;5025213;28;20030;-75
2021/12/10 00:48:41;;;;;;;14.88;7.53;;;;;;;;;;5015126;28;20070;-76
2021/12/10 00:51:09;;;;;;;13.77;7.63;;;;;;;;;;4989205;28;20050;-75
2021/12/10 00:53:35;;;;;;;11.27;7.20;;;;;;;;;;5006422;28;20060;-77
2021/12/10 00:56:02;;;;;;;12.80;6.72;;;;;;;;;;5007020;28;20084;-76
2021/12/10 00:58:28;;;;;;;12.73;7.68;;;;;;;;;;5006562;28;20034;-75
2021/12/10 01:00:59;;;;;;;12.60;7.60;;;;;;;;;;4988906;28;20026;-75
2021/12/10 01:03:32;;;;;;;13.35;7.47;;;;;;;;;;5006554;28;20125;-75
2021/12/10 01:06:01;;;;;;;16.45;8.75;;;;;;;;;;5006711;28;20033;-77
2021/12/10 01:08:28;;;;;;;15.85;9.02;;;;;;;;;;4988766;28;20042;-76
2021/12/10 01:10:58;;;;;;;19.42;9.90;;;;;;;;;;5006172;28;20121;-76
2021/12/10 01:13:27;;;;;;;19.75;8.77;;;;;;;;;;5006396;28;20030;-75
2021/12/10 01:23:42;;;;;;;15.30;10.23;;;;;;;;;;5006373;28;20076;-76
2021/12/10 01:27:40;;;;;;;19.63;10.63;;;;;;;;;;5005044;28;20097;-75
2021/12/10 01:30:23;;;;;;;17.90;10.63;;;;;;;;;;5005855;28;20106;-76
2021/12/10 01:32:54;;;;;;;21.92;12.20;;;;;;;;;;5005864;28;20031;-76
2021/12/10 01:35:23;;;;;;;18.48;10.48;;;;;;;;;;5006217;28;20046;-75
2021/12/10 01:37:54;;;;;;;18.48;10.65;;;;;;;;;;4988150;28;20372;-77
2021/12/10 01:40:22;;;;;;;19.75;10.40;;;;;;;;;;5005970;28;20067;-76
2021/12/10 01:42:52;;;;;;;17.48;10.57;;;;;;;;;;5005949;28;20053;-76
2021/12/10 01:45:25;;;;;;;19.38;10.93;;;;;;;;;;5005988;28;20239;-75
2021/12/10 01:47:58;;;;;;;15.85;9.75;;;;;;;;;;4988040;28;20047;-76
2021/12/10 01:50:27;;;;;;;19.25;10.25;;;;;;;;;;5018197;28;20082;-76
2021/12/10 01:52:56;;;;;;;17.40;9.75;;;;;;;;;;5007213;28;20033;-75
2021/12/10 01:55:25;;;;;;;21.13;9.88;;;;;;;;;;5007761;28;20030;-76
2021/12/10 01:57:52;;;;;;;15.93;8.93;;;;;;;;;;5025100;28;20056;-75
2021/12/10 02:00:21;;;;;;;17.75;9.82;;;;;;;;;;5007170;28;20069;-75
2021/12/10 02:02:48;;;;;;;14.32;8.82;;;;;;;;;;5024074;28;20116;-75
2021/12/10 02:05:14;;;;;;;14.05;8.93;;;;;;;;;;5025155;28;20064;-74
2021/12/10 02:07:40;;;;;;;15.50;8.93;;;;;;;;;;5024622;28;20041;-75
2021/12/10 02:10:10;;;;;;;14.50;7.82;;;;;;;;;;5024964;28;20361;-76
2021/12/10 02:12:35;;;;;;;13.85;7.90;;;;;;;;;;5025021;28;20053;-74
2021/12/10 02:15:03;;;;;;;14.20;7.50;;;;;;;;;;5025017;28;20478;-77
2021/12/10 02:17:36;;;;;;;13.13;7.63;;;;;;;;;;5006922;28;20040;-75
2021/12/10 02:20:21;;;;;;;16.73;7.30;;;;;;;;;;5024927;28;20086;-74
2021/12/10 02:22:48;;;;;;;13.13;6.72;;;;;;;;;;5024732;28;20270;-76
2021/12/10 02:25:21;;;;;;;14.90;7.13;;;;;;;;;;5024626;28;20033;-74
2021/12/10 02:27:47;;;;;;;12.43;6.15;;;;;;;;;;5007055;28;20026;-75
2021/12/10 02:30:14;;;;;;;10.65;6.47;;;;;;;;;;5006920;28;20045;-75
2021/12/10 02:32:40;;;;;;;10.27;6.18;;;;;;;;;;5006543;28;20060;-75
2021/12/10 02:35:07;;;;;;;12.30;6.95;;;;;;;;;;5007004;28;20033;-75
2021/12/10 02:37:33;;;;;;;10.68;6.57;;;;;;;;;;5024358;28;20026;-74
2021/12/10 02:39:59;;;;;;;14.88;6.97;;;;;;;;;;5024272;28;20073;-73
2021/12/10 02:42:25;;;;;;;16.23;8.13;;;;;;;;;;5024130;28;20098;-74
2021/12/10 02:44:50;;;;;;;13.07;7.85;;;;;;;;;;5024206;28;20029;-74
2021/12/10 02:47:16;;;;;;;16.42;9.43;;;;;;;;;;5006323;28;20030;-73
2021/12/10 02:49:42;;;;;;;18.23;9.23;;;;;;;;;;5006170;28;20065;-76
2021/12/10 02:52:10;;;;;;;21.85;9.65;;;;;;;;;;5023923;28;20442;-74
2021/12/10 02:54:37;;;;;;;14.48;10.05;;;;;;;;;;5024101;28;20049;-74
2021/12/10 02:57:16;;;;;;;14.82;8.82;;;;;;;;;;5024034;28;20540;-74
2021/12/10 02:59:42;;;;;;;15.05;9.18;;;;;;;;;;5024281;28;20037;-76
2021/12/10 03:02:13;;;;;;;16.77;9.15;;;;;;;;;;5023457;28;20391;-73
2021/12/10 03:04:38;;;;;;;23.55;10.20;;;;;;;;;;5023939;28;20014;-74
2021/12/10 03:07:11;;;;;;;18.15;9.95;;;;;;;;;;5006387;28;20030;-73
2021/12/10 03:09:39;;;;;;;17.83;10.18;;;;;;;;;;5006187;28;20026;-74
2021/12/10 03:12:06;;;;;;;17.38;10.40;;;;;;;;;;5006106;28;20053;-73
2021/12/10 03:14:36;;;;;;;15.85;9.02;;;;;;;;;;5023757;28;20021;-73
2021/12/10 03:17:08;;;;;;;14.05;8.93;;;;;;;;;;5023642;28;20029;-74
2021/12/10 03:19:34;;;;;;;17.98;8.77;;;;;;;;;;5024223;28;20097;-73
2021/12/10 03:22:00;;;;;;;13.48;8.93;;;;;;;;;;5023673;28;20102;-74
2021/12/10 03:24:28;;;;;;;12.93;7.68;;;;;;;;;;5023524;28;20033;-74
2021/12/10 03:26:57;;;;;;;14.50;7.68;;;;;;;;;;5023152;28;20046;-74
2021/12/10 03:29:25;;;;;;;13.68;7.15;;;;;;;;;;5005180;28;20095;-73
2021/12/10 03:31:52;;;;;;;19.83;7.43;;;;;;;;;;5023382;28;20030;-75
2021/12/10 03:34:19;;;;;;;12.07;7.80;;;;;;;;;;5023388;28;20092;-72
2021/12/10 03:36:46;;;;;;;14.05;7.13;;;;;;;;;;5023664;28;20091;-74
2021/12/10 03:39:17;;;;;;;13.95;7.07;;;;;;;;;;5023225;28;20034;-73
2021/12/10 03:41:43;;;;;;;12.20;7.25;;;;;;;;;;5005615;28;20030;-74
2021/12/10 03:44:09;;;;;;;11.45;6.70;;;;;;;;;;5004619;28;20065;-73
2021/12/10 03:46:35;;;;;;;10.90;7.07;;;;;;;;;;5022147;28;20042;-73
2021/12/10 03:49:03;;;;;;;15.52;7.57;;;;;;;;;;5022645;28;20046;-73
2021/12/10 03:51:30;;;;;;;14.90;7.43;;;;;;;;;;5022778;28;20026;-73
2021/12/10 03:53:57;;;;;;;13.68;7.00;;;;;;;;;;5005332;28;20097;-73
2021/12/10 03:56:25;;;;;;;15.52;6.88;;;;;;;;;;5005325;28;20032;-75
2021/12/10 03:58:52;;;;;;;14.68;7.00;;;;;;;;;;5022835;28;20033;-72
2021/12/10 04:01:23;;;;;;;10.85;6.47;;;;;;;;;;5022950;28;20036;-73
2021/12/10 04:03:51;;;;;;;12.25;6.97;;;;;;;;;;5005550;28;20033;-75
2021/12/10 04:06:17;;;;;;;13.65;6.85;;;;;;;;;;5005626;28;20056;-73
2021/12/10 04:08:43;;;;;;;13.70;7.35;;;;;;;;;;5022781;28;20429;-73
2021/12/10 04:11:10;;;;;;;16.67;8.30;;;;;;;;;;5005105;28;20251;-73
2021/12/10 04:13:36;;;;;;;14.77;7.00;;;;;;;;;;5005111;28;20018;-72
2021/12/10 04:16:03;;;;;;;18.38;7.63;;;;;;;;;;5023002;28;20026;-73
2021/12/10 04:18:29;;;;;;;17.95;8.25;;;;;;;;;;5022837;28;20037;-74
2021/12/10 04:20:55;;;;;;;16.30;8.65;;;;;;;;;;5023149;28;20030;-73
2021/12/10 04:23:21;;;;;;;20.15;8.90;;;;;;;;;;5004994;28;20029;-73
2021/12/10 04:25:47;;;;;;;15.05;8.50;;;;;;;;;;5022765;28;20026;-73
2021/12/10 04:28:20;;;;;;;18.83;10.63;;;;;;;;;;5022766;28;20033;-74
2021/12/10 04:30:47;;;;;;;18.42;9.50;;;;;;;;;;5023179;28;20037;-74
2021/12/10 04:33:17;;;;;;;16.50;9.30;;;;;;;;;;5022658;28;20061;-75
2021/12/10 04:35:46;;;;;;;18.75;10.38;;;;;;;;;;5005231;28;20026;-73
2021/12/10 04:38:13;;;;;;;17.45;10.10;;;;;;;;;;5022719;28;20046;-73
2021/12/10 04:40:39;;;;;;;15.90;8.95;;;;;;;;;;5022521;28;20025;-74
2021/12/10 04:43:05;;;;;;;17.38;9.20;;;;;;;;;;5004619;28;20050;-73
2021/12/10 04:45:31;;;;;;;16.70;8.93;;;;;;;;;;5022928;28;20028;-72
2021/12/10 04:47:56;;;;;;;15.68;9.07;;;;;;;;;;5022064;28;20042;-72
2021/12/10 04:50:26;;;;;;;15.40;9.18;;;;;;;;;;5022677;28;20030;-73
2021/12/10 04:52:51;;;;;;;16.52;9.38;;;;;;;;;;5022222;28;20022;-72
2021/12/10 04:55:18;;;;;;;15.77;8.40;;;;;;;;;;5004842;28;20034;-73
2021/12/10 04:57:44;;;;;;;17.33;9.00;;;;;;;;;;5022277;28;20030;-73
2021/12/10 05:00:18;;;;;;;14.95;8.30;;;;;;;;;;5022640;28;20037;-73
2021/12/10 05:02:44;;;;;;;16.55;8.52;;;;;;;;;;5007416;28;20029;-73
2021/12/10 05:05:11;;;;;;;16.02;7.43;;;;;;;;;;5026254;28;20056;-72
2021/12/10 05:07:38;;;;;;;14.27;7.57;;;;;;;;;;5026367;28;20034;-74
2021/12/10 05:10:10;;;;;;;13.60;7.00;;;;;;;;;;5008254;28;20500;-72
2021/12/10 05:12:36;;;;;;;12.80;7.47;;;;;;;;;;5026084;28;20046;-73
2021/12/10 05:15:05;;;;;;;14.32;7.30;;;;;;;;;;5026102;28;20037;-72
2021/12/10 05:17:34;;;;;;;16.50;7.18;;;;;;;;;;5025758;28;20030;-72
2021/12/10 05:20:00;;;;;;;12.07;7.55;;;;;;;;;;5025822;28;20038;-74
2021/12/10 05:22:27;;;;;;;13.20;7.15;;;;;;;;;;5025801;28;20085;-73
2021/12/10 05:24:53;;;;;;;13.70;7.93;;;;;;;;;;5025853;28;20026;-72
2021/12/10 05:27:19;;;;;;;14.38;7.63;;;;;;;;;;5008101;28;20061;-72
2021/12/10 05:29:44;;;;;;;12.77;7.25;;;;;;;;;;5025727;28;20449;-74
2021/12/10 05:32:11;;;;;;;16.52;7.70;;;;;;;;;;5008035;28;20136;-74
2021/12/10 05:34:40;;;;;;;13.77;7.75;;;;;;;;;;5005304;28;20033;-74
2021/12/10 05:37:07;;;;;;;15.63;8.30;;;;;;;;;;5024603;28;20033;-73
2021/12/10 05:39:32;;;;;;;17.83;8.55;;;;;;;;;;5025711;28;20040;-73
2021/12/10 05:42:00;;;;;;;14.95;8.02;;;;;;;;;;5007422;28;20041;-72
2021/12/10 05:44:26;;;;;;;14.80;7.95;;;;;;;;;;5025429;28;20033;-72
2021/12/10 05:46:51;;;;;;;16.65;8.07;;;;;;;;;;5007840;28;20108;-72
2021/12/10 05:49:17;;;;;;;14.50;7.75;;;;;;;;;;5025527;28;20049;-72
2021/12/10 05:51:42;;;;;;;12.98;7.75;;;;;;;;;;5025176;28;20029;-73
2021/12/10 05:54:08;;;;;;;12.48;7.35;;;;;;;;;;5024962;28;20038;-73
2021/12/10 05:56:34;;;;;;;13.05;8.25;;;;;;;;;;5007458;28;20025;-72
2021/12/10 05:58:59;;;;;;;14.43;7.35;;;;;;;;;;5007313;28;20049;-73
2021/12/10 06:01:25;;;;;;;16.33;8.57;;;;;;;;;;5024982;28;20042;-73
2021/12/10 06:03:52;;;;;;;12.18;7.65;;;;;;;;;;5025014;28;20038;-72
2021/12/10 06:06:20;;;;;;;14.65;7.03;;;;;;;;;;5024961;28;20025;-72
2021/12/10 06:08:47;;;;;;;16.48;8.45;;;;;;;;;;5025086;28;20068;-72
2021/12/10 06:11:13;;;;;;;13.93;7.53;;;;;;;;;;5024978;28;20045;-72
2021/12/10 06:13:38;;;;;;;13.75;7.55;;;;;;;;;;5024331;28;20072;-73
2021/12/10 06:16:04;;;;;;;14.13;7.15;;;;;;;;;;5025163;28;20029;-72
2021/12/10 06:18:30;;;;;;;12.27;7.20;;;;;;;;;;5025153;28;20072;-72
2021/12/10 06:20:56;;;;;;;16.58;7.97;;;;;;;;;;5025373;28;20105;-71
2021/12/10 06:23:22;;;;;;;13.90;8.18;;;;;;;;;;5024655;28;20172;-72
2021/12/10 06:25:48;;;;;;;13.90;7.90;;;;;;;;;;5024941;28;20450;-72
2021/12/10 06:28:14;;;;;;;13.77;7.63;;;;;;;;;;5025154;28;20405;-72
2021/12/10 06:30:42;;;;;;;14.60;7.75;;;;;;;;;;5025119;28;20068;-72
2021/12/10 06:33:11;;;;;;;13.68;7.57;;;;;;;;;;5007176;28;20034;-72
2021/12/10 06:35:38;;;;;;;16.73;7.47;;;;;;;;;;5024757;28;20084;-72
2021/12/10 06:38:04;;;;;;;14.35;8.52;;;;;;;;;;5024867;28;20038;-73
2021/12/10 06:40:32;;;;;;;19.80;8.27;;;;;;;;;;5024910;28;20061;-73
2021/12/10 06:42:58;;;;;;;15.05;8.05;;;;;;;;;;5024694;28;20054;-73
2021/12/10 06:45:26;;;;;;;15.57;8.25;;;;;;;;;;5006955;28;20033;-71
2021/12/10 06:47:55;;;;;;;12.35;7.60;;;;;;;;;;5006691;28;20038;-73
2021/12/10 06:50:24;;;;;;;14.57;8.23;;;;;;;;;;5024766;28;20069;-72
2021/12/10 06:52:51;;;;;;;12.00;6.28;;;;;;;;;;5006630;28;20026;-72
2021/12/10 06:55:16;;;;;;;13.77;7.63;;;;;;;;;;5024301;28;20558;-72
2021/12/10 06:57:43;;;;;;;15.75;8.60;;;;;;;;;;5023955;28;20060;-73
2021/12/10 07:00:16;;;;;;;14.98;8.05;;;;;;;;;;5024626;28;20042;-72
2021/12/10 07:02:44;;;;;;;13.10;7.82;;;;;;;;;;5024236;28;20121;-73
2021/12/10 07:05:10;;;;;;;13.20;7.22;;;;;;;;;;5024378;28;20041;-72
2021/12/10 07:07:38;;;;;;;11.82;7.07;;;;;;;;;;5023581;28;20025;-72
2021/12/10 07:10:05;;;;;;;14.48;6.70;;;;;;;;;;5006359;28;20036;-72
2021/12/10 07:12:30;;;;;;;11.63;6.55;;;;;;;;;;5005009;28;20033;-73
2021/12/10 07:15:00;;;;;;;9.40;5.70;;;;;;;;;;5023514;28;20040;-72
2021/12/10 07:17:26;;;;;;;13.35;7.05;;;;;;;;;;5023050;28;20021;-72
2021/12/10 07:19:51;;;;;;;10.35;5.93;;;;;;;;;;5023031;28;20042;-73
2021/12/10 07:22:17;;;;;;;12.32;6.00;;;;;;;;;;5021810;28;20057;-72
2021/12/10 07:24:42;;;;;;;10.90;6.75;;;;;;;;;;5021419;28;20026;-72
2021/12/10 07:27:11;;;;;;;14.23;8.07;;;;;;;;;;5022225;28;20041;-74
2021/12/10 07:29:38;;;;;;;13.82;6.90;;;;;;;;;;5005942;28;20022;-73
2021/12/10 07:32:04;;;;;;;13.63;7.32;;;;;;;;;;5003624;28;20058;-72
2021/12/10 07:34:32;;;;;;;11.90;6.55;;;;;;;;;;5022248;28;20038;-70
2021/12/10 07:36:58;;;;;;;11.57;6.88;;;;;;;;;;5004220;28;20045;-71
2021/12/10 07:39:23;;;;;;;11.48;5.82;;;;;;;;;;5022570;28;20073;-72
2021/12/10 07:41:49;;;;;;;11.65;5.97;;;;;;;;;;5023007;28;20060;-72
2021/12/10 07:44:15;;;;;;;12.23;6.40;;;;;;;;;;5005629;28;20032;-71
2021/12/10 07:46:41;;;;;;;10.70;5.22;;;;;;;;;;5006214;28;20026;-71
2021/12/10 07:49:14;;;;;;;14.77;6.80;;;;;;;;;;5005548;28;20042;-70
2021/12/10 07:51:42;;;;;;;9.95;5.03;;;;;;;;;;5006144;28;20045;-71
2021/12/10 07:54:09;;;;;;;7.95;4.85;;;;;;;;;;5006054;28;20041;-73
2021/12/10 07:56:34;;;;;;;14.43;5.47;;;;;;;;;;5006119;28;20029;-71
2021/12/10 07:59:00;;;;;;;10.57;5.82;;;;;;;;;;5023680;28;20048;-71
2021/12/10 08:01:29;;;;;;;9.88;5.45;;;;;;;;;;5023471;28;20045;-72
2021/12/10 08:03:56;;;;;;;10.65;5.63;;;;;;;;;;5005708;28;20081;-72
2021/12/10 08:06:23;;;;;;;11.48;6.32;;;;;;;;;;5023899;28;20489;-72
2021/12/10 08:08:49;;;;;;;10.38;5.53;;;;;;;;;;5023353;28;20033;-72
2021/12/10 08:11:15;;;;;;;8.63;5.43;;;;;;;;;;5023423;28;20101;-71
2021/12/10 08:13:41;;;;;;;9.50;6.05;;;;;;;;;;5023174;28;20025;-71
2021/12/10 08:16:07;;;;;;;12.02;5.88;;;;;;;;;;5023342;28;20106;-71
2021/12/10 08:18:33;;;;;;;10.10;5.32;;;;;;;;;;5005074;28;20026;-71
2021/12/10 08:20:58;;;;;;;9.68;5.47;;;;;;;;;;5023492;28;20033;-72
2021/12/10 08:23:25;;;;;;;9.88;5.10;;;;;;;;;;5023415;28;20034;-72
2021/12/10 08:25:51;;;;;;;10.63;5.55;;;;;;;;;;5023433;28;20088;-72
2021/12/10 08:28:21;;;;;;;9.15;4.53;;;;;;;;;;5023613;28;20175;-71
2021/12/10 08:30:47;;;;;;;8.38;4.88;;;;;;;;;;5006000;28;20117;-72
2021/12/10 08:33:14;;;;;;;9.32;4.75;;;;;;;;;;5023400;28;20029;-70
2021/12/10 08:35:44;;;;;;;9.35;4.78;;;;;;;;;;5023597;28;20517;-72
2021/12/10 08:38:11;;;;;;;7.05;4.20;;;;;;;;;;5027128;28;20072;-71
2021/12/10 08:40:44;;;;;;;9.10;4.78;;;;;;;;;;5027179;28;20037;-72
2021/12/10 08:43:10;;;;;;;9.48;4.60;;;;;;;;;;5027696;28;20053;-71
2021/12/10 08:45:38;;;;;;;9.88;5.00;;;;;;;;;;5027181;28;20030;-71
2021/12/10 08:48:05;;;;;;;13.63;4.50;;;;;;;;;;5026906;28;20061;-72
2021/12/10 08:50:32;;;;;;;8.23;4.15;;;;;;;;;;5026894;28;20038;-71
2021/12/10 08:53:03;;;;;;;8.25;3.90;;;;;;;;;;5025606;28;20057;-71
2021/12/10 08:55:30;;;;;;;10.25;4.63;;;;;;;;;;5026698;28;20026;-71
2021/12/10 08:57:55;;;;;;;7.60;4.40;;;;;;;;;;5027003;28;20045;-71
2021/12/10 09:00:22;;;;;;;7.75;4.55;;;;;;;;;;5025981;28;20030;-72
2021/12/10 09:02:50;;;;;;;10.95;5.50;;;;;;;;;;5026849;28;20045;-72
2021/12/10 09:05:16;;;;;;;11.77;5.63;;;;;;;;;;5027097;28;20034;-71
2021/12/10 09:07:45;;;;;;;11.70;6.00;;;;;;;;;;5026492;28;20052;-71
2021/12/10 09:10:14;;;;;;;12.98;6.20;;;;;;;;;;5008648;28;20068;-71
2021/12/10 09:12:41;;;;;;;12.60;6.25;;;;;;;;;;5026307;28;20029;-72
2021/12/10 09:15:10;;;;;;;11.35;6.05;;;;;;;;;;5026203;28;20032;-72
2021/12/10 09:17:39;;;;;;;13.02;6.80;;;;;;;;;;5007793;28;20026;-71
2021/12/10 09:20:12;;;;;;;10.43;6.80;;;;;;;;;;5026225;28;20030;-71
2021/12/10 09:22:38;;;;;;;11.38;7.30;;;;;;;;;;5008501;28;20030;-72
2021/12/10 09:25:06;;;;;;;15.05;8.13;;;;;;;;;;5008630;28;20052;-72
2021/12/10 09:27:31;;;;;;;13.88;6.90;;;;;;;;;;5008189;28;20030;-73
2021/12/10 09:29:57;;;;;;;15.50;8.98;;;;;;;;;;5025788;28;20049;-71
2021/12/10 09:32:24;;;;;;;14.13;8.45;;;;;;;;;;5025974;28;20092;-71
2021/12/10 09:34:51;;;;;;;14.63;7.68;;;;;;;;;;5008270;28;20125;-72
2021/12/10 09:37:18;;;;;;;17.73;8.95;;;;;;;;;;5025968;28;20030;-71
2021/12/10 09:39:48;;;;;;;13.73;7.80;;;;;;;;;;5026488;28;20033;-71
2021/12/10 09:42:14;;;;;;;15.70;7.60;;;;;;;;;;5025972;28;20045;-71
2021/12/10 09:44:42;;;;;;;11.43;7.07;;;;;;;;;;5025575;28;20034;-72
2021/12/10 09:47:14;;;;;;;12.27;7.30;;;;;;;;;;5025303;28;20022;-72
2021/12/10 09:49:41;;;;;;;11.63;6.30;;;;;;;;;;5005752;28;20073;-71
2021/12/10 09:52:07;;;;;;;9.82;5.45;;;;;;;;;;5024539;28;20026;-72
2021/12/10 09:54:35;;;;;;;7.90;4.97;;;;;;;;;;5024946;28;20026;-72
2021/12/10 09:57:09;;;;;;;9.13;5.10;;;;;;;;;;5007438;28;20057;-71
2021/12/10 09:59:36;;;;;;;9.85;5.57;;;;;;;;;;5025745;28;20463;-72
2021/12/10 10:02:03;;;;;;;9.32;5.47;;;;;;;;;;5025246;28;20065;-72
2021/12/10 10:04:35;;;;;;;11.27;5.90;;;;;;;;;;5025579;28;20036;-70
2021/12/10 10:07:07;;;;;;;9.63;5.97;;;;;;;;;;5007500;28;20038;-72
2021/12/10 10:09:33;;;;;;;9.52;5.55;;;;;;;;;;5008025;28;20030;-71
2021/12/10 10:12:05;;;;;;;11.05;5.80;;;;;;;;;;5025542;28;20034;-71
2021/12/10 10:14:31;;;;;;;10.52;5.53;;;;;;;;;;5024916;28;20033;-72
2021/12/10 10:16:57;;;;;;;7.20;4.85;;;;;;;;;;5025142;28;20026;-71
2021/12/10 10:19:23;;;;;;;12.40;6.18;;;;;;;;;;5007410;28;20033;-71
2021/12/10 10:21:53;;;;;;;11.20;6.03;;;;;;;;;;5025216;28;20033;-72
2021/12/10 10:24:20;;;;;;;9.88;5.78;;;;;;;;;;5007112;28;20034;-72
2021/12/10 10:26:54;;;;;;;10.13;6.22;;;;;;;;;;5025045;28;20033;-72
2021/12/10 10:29:22;;;;;;;11.02;6.05;;;;;;;;;;5007399;28;20038;-72
2021/12/10 10:31:51;;;;;;;13.82;6.55;;;;;;;;;;5007391;28;20030;-71
2021/12/10 10:34:18;;;;;;;14.05;7.80;;;;;;;;;;5024870;28;20041;-71
2021/12/10 10:36:43;;;;;;;13.10;7.50;;;;;;;;;;5024728;28;20120;-72
2021/12/10 10:39:14;;;;;;;13.10;7.18;;;;;;;;;;5024990;28;20036;-71
2021/12/10 10:41:43;;;;;;;12.77;7.10;;;;;;;;;;5024651;28;20038;-71
2021/12/10 10:44:09;;;;;;;11.52;6.68;;;;;;;;;;5006780;28;20053;-72
2021/12/10 10:46:36;;;;;;;19.50;8.38;;;;;;;;;;5024647;28;20040;-71
2021/12/10 10:49:03;;;;;;;11.57;7.80;;;;;;;;;;5023699;28;20076;-70
2021/12/10 10:51:39;;;;;;;12.13;7.28;;;;;;;;;;5024182;28;20041;-71
2021/12/10 10:54:09;;;;;;;13.02;7.35;;;;;;;;;;5024522;28;20045;-72
2021/12/10 10:56:42;;;;;;;11.75;6.68;;;;;;;;;;5007142;28;20062;-71
2021/12/10 10:59:14;;;;;;;13.68;6.70;;;;;;;;;;5024195;28;20030;-71
2021/12/10 11:01:58;;;;;;;15.88;7.47;;;;;;;;;;5024289;28;20045;-72
2021/12/10 11:04:33;;;;;;;13.55;6.70;;;;;;;;;;5024344;28;20033;-71
2021/12/10 11:07:09;;;;;;;13.35;7.93;;;;;;;;;;5024076;28;20049;-71
2021/12/10 11:09:41;;;;;;;14.20;7.45;;;;;;;;;;5024049;28;20029;-71
2021/12/10 11:12:12;;;;;;;12.27;6.85;;;;;;;;;;5023945;28;20470;-71
2021/12/10 11:14:44;;;;;;;15.13;8.93;;;;;;;;;;5022898;28;20065;-71
2021/12/10 11:17:15;;;;;;;12.88;7.75;;;;;;;;;;5022515;28;20033;-71
2021/12/10 11:19:52;;;;;;;14.40;7.65;;;;;;;;;;5005108;28;20030;-72
2021/12/10 11:22:18;;;;;;;10.93;6.35;;;;;;;;;;5022816;28;20030;-71
2021/12/10 11:24:47;;;;;;;14.38;7.65;;;;;;;;;;5022663;28;20044;-72
2021/12/10 11:27:24;;;;;;;15.63;8.18;;;;;;;;;;5022179;28;20089;-73
2021/12/10 11:30:01;;;;;;;12.23;7.13;;;;;;;;;;5006411;28;20030;-71
2021/12/10 11:32:26;;;;;;;12.35;8.40;;;;;;;;;;5006072;28;20034;-71
2021/12/10 11:35:16;;;;;;;13.27;6.75;;;;;;;;;;5023799;28;20026;-71
2021/12/10 11:37:50;;;;;;;17.00;7.80;;;;;;;;;;5006127;28;20026;-71
2021/12/10 11:40:41;;;;;;;15.07;7.32;;;;;;;;;;5024064;28;20025;-70
2021/12/10 11:43:44;;;;;;;10.60;6.70;;;;;;;;;;5024284;28;20033;-71
2021/12/10 11:46:31;;;;;;;13.80;7.28;;;;;;;;;;5024038;28;20052;-71
2021/12/10 11:49:00;;;;;;;9.95;6.60;;;;;;;;;;5024143;28;20042;-70
2021/12/10 11:51:40;;;;;;;14.13;7.03;;;;;;;;;;5005328;28;20033;-73
2021/12/10 11:54:17;;;;;;;15.65;7.88;;;;;;;;;;5005817;28;20029;-71
2021/12/10 11:56:48;;;;;;;14.18;6.93;;;;;;;;;;5005114;28;20034;-71
2021/12/10 11:59:24;;;;;;;11.07;6.07;;;;;;;;;;5023365;28;20084;-71
2021/12/10 12:01:56;;;;;;;12.15;6.25;;;;;;;;;;5023382;28;20482;-71
2021/12/10 12:04:41;;;;;;;11.68;6.20;;;;;;;;;;5004984;28;20065;-71
2021/12/10 12:07:13;;;;;;;10.00;5.65;;;;;;;;;;5022573;28;20442;-70
2021/12/10 12:09:40;;;;;;;10.15;5.03;;;;;;;;;;5021969;28;20501;-71
2021/12/10 12:12:11;;;;;;;8.43;5.13;;;;;;;;;;5023451;28;20091;-72
2021/12/10 12:14:37;;;;;;;8.65;4.53;;;;;;;;;;5026031;28;20022;-72
2021/12/10 12:17:06;;;;;;;7.32;4.28;;;;;;;;;;5008281;28;20034;-71
2021/12/10 12:19:35;;;;;;;7.78;4.10;;;;;;;;;;5026306;28;20108;-74
2021/12/10 12:24:57;;;;;;;7.72;3.95;;;;;;;;;;5027167;28;20065;-72
2021/12/10 12:27:22;;;;;;;6.50;3.85;;;;;;;;;;5026139;28;20433;-70
2021/12/10 12:29:53;;;;;;;7.13;3.97;;;;;;;;;;5024589;28;20041;-72
2021/12/10 12:32:31;;;;;;;6.45;3.50;;;;;;;;;;5025885;28;20044;-72
2021/12/10 12:34:56;;;;;;;5.45;3.33;;;;;;;;;;5026814;28;20030;-71
2021/12/10 12:37:24;;;;;;;6.25;3.47;;;;;;;;;;5008830;28;20040;-71
2021/12/10 12:39:58;;;;;;;5.47;2.78;;;;;;;;;;5027084;28;20386;-71
2021/12/10 12:42:34;;;;;;;7.75;3.10;;;;;;;;;;5026776;28;20029;-70
2021/12/10 12:45:09;;;;;;;9.02;3.13;;;;;;;;;;5009499;28;20040;-71
2021/12/10 12:47:40;;;;;;;4.53;2.63;;;;;;;;;;5026519;28;20382;-71
2021/12/10 12:50:27;;;;;;;5.30;2.58;;;;;;;;;;5027072;28;20040;-71
2021/12/10 12:52:55;;;;;;;3.53;2.35;;;;;;;;;;5026871;28;20033;-71
2021/12/10 12:55:24;;;;;;;6.32;2.22;;;;;;;;;;5026999;28;20038;-71
2021/12/10 12:57:56;;;;;;;4.47;2.60;;;;;;;;;;5026000;28;20036;-71
2021/12/10 13:00:54;;;;;;;5.95;2.28;;;;;;;;;;5008244;28;20406;-71
2021/12/10 13:03:43;;;;;;;6.03;2.05;;;;;;;;;;5026411;28;20104;-70
2021/12/10 13:06:27;;;;;;;6.78;2.17;;;;;;;;;;5008453;28;20382;-70
2021/12/10 13:09:16;;;;;;;3.33;1.58;;;;;;;;;;5008457;28;20080;-72
2021/12/10 13:12:08;;;;;;;3.30;1.52;;;;;;;;;;5026770;28;20046;-71
2021/12/10 13:14:46;;;;;;;2.22;1.45;;;;;;;;;;5026518;28;20387;-70
2021/12/10 13:17:14;;;;;;;3.90;1.65;;;;;;;;;;5026317;28;20105;-71
2021/12/10 13:19:39;;;;;;;3.05;1.67;;;;;;;;;;5026655;28;20029;-71
2021/12/10 13:22:13;;;;;;;2.55;1.42;;;;;;;;;;5026200;28;20034;-71
2021/12/10 13:24:41;;;;;;;3.67;2.00;;;;;;;;;;5008152;28;20061;-71
2021/12/10 13:27:07;;;;;;;3.90;2.10;;;;;;;;;;5008373;28;20445;-71
2021/12/10 13:29:33;;;;;;;4.05;1.60;;;;;;;;;;5026374;28;20034;-71
2021/12/10 13:32:00;;;;;;;4.20;2.10;;;;;;;;;;5008351;28;20032;-71
2021/12/10 13:34:29;;;;;;;2.75;1.70;;;;;;;;;;5007968;28;20466;-70
2021/12/10 13:36:57;;;;;;;4.10;1.92;;;;;;;;;;5025997;28;20034;-70
2021/12/10 13:39:23;;;;;;;4.57;1.88;;;;;;;;;;5025874;28;20030;-71
2021/12/10 13:41:48;;;;;;;4.13;2.28;;;;;;;;;;5025839;28;20417;-71
2021/12/10 13:44:43;;;;;;;4.80;2.33;;;;;;;;;;5025904;28;20030;-71
2021/12/10 13:47:39;;;;;;;4.43;2.50;;;;;;;;;;5025173;28;20044;-70
2021/12/10 13:50:16;;;;;;;4.78;2.15;;;;;;;;;;5021404;28;20053;-71
2021/12/10 13:52:47;;;;;;;5.63;3.00;;;;;;;;;;5026083;28;20033;-72
2021/12/10 13:55:26;;;;;;;4.43;2.35;;;;;;;;;;5025885;28;20034;-70
2021/12/10 13:58:19;;;;;;;6.05;2.70;;;;;;;;;;5008218;28;20093;-71
2021/12/10 14:01:05;;;;;;;4.60;2.65;;;;;;;;;;5025920;28;20052;-72
2021/12/10 14:03:39;;;;;;;3.53;2.45;;;;;;;;;;4980136;28;20104;-72
2021/12/10 14:06:05;;;;;;;4.15;2.60;;;;;;;;;;5007849;28;20019;-70
2021/12/10 14:08:33;;;;;;;4.60;2.65;;;;;;;;;;5025087;28;20026;-71
2021/12/10 14:11:12;;;;;;;5.53;2.78;;;;;;;;;;5025304;28;20025;-71
2021/12/10 14:13:38;;;;;;;6.93;3.00;;;;;;;;;;5025349;28;20065;-71
2021/12/10 14:16:09;;;;;;;16.15;2.85;;;;;;;;;;5025434;28;20038;-71
2021/12/10 14:18:45;;;;;;;7.28;3.08;;;;;;;;;;5007882;28;20037;-71
2021/12/10 14:21:15;;;;;;;9.85;3.47;;;;;;;;;;5007570;28;20038;-70
2021/12/10 14:23:56;;;;;;;5.70;3.10;;;;;;;;;;5025174;28;20034;-70
2021/12/10 14:26:25;;;;;;;4.43;2.75;;;;;;;;;;5017506;28;20033;-72
2021/12/10 14:29:01;;;;;;;5.60;2.88;;;;;;;;;;5025013;28;20041;-70
2021/12/10 14:31:47;;;;;;;10.57;2.67;;;;;;;;;;5007465;28;20519;-70
2021/12/10 14:34:19;;;;;;;7.53;2.53;;;;;;;;;;5023981;28;20050;-71
2021/12/10 14:36:59;;;;;;;6.50;3.28;;;;;;;;;;5007528;28;20030;-70
2021/12/10 14:39:24;;;;;;;4.93;2.58;;;;;;;;;;5007121;28;20046;-73
2021/12/10 14:41:54;;;;;;;4.97;2.42;;;;;;;;;;5006876;28;20380;-72
2021/12/10 14:44:32;;;;;;;5.00;2.83;;;;;;;;;;5024537;28;20041;-72
2021/12/10 14:47:17;;;;;;;6.35;2.88;;;;;;;;;;5024333;28;20049;-72
2021/12/10 14:49:44;;;;;;;7.57;3.45;;;;;;;;;;5006071;28;20046;-73
2021/12/10 14:52:15;;;;;;;6.38;3.03;;;;;;;;;;5004885;28;20140;-71
2021/12/10 14:55:15;;;;;;;4.85;2.92;;;;;;;;;;4987295;28;20422;-71
2021/12/10 14:58:11;;;;;;;8.10;3.58;;;;;;;;;;4987415;28;20185;-71
2021/12/10 15:00:45;;;;;;;6.80;3.20;;;;;;;;;;4987685;28;20039;-71
2021/12/10 15:03:26;;;;;;;5.18;3.13;;;;;;;;;;5004592;28;20034;-71